Aérodrome :
LOGIN :

S'inscrire | Disclaimer

   EN    FR    IT 

 










Légende :    VFR   VFR Marginal   IFR   IFR Intensif   IFR Très Intensif
Visi : 
Plafond : 
>= 8 km
>= 3000ft
5 à 8 km
1000 à 3000 ft
1500m à 5 km
500 à 1000 ft
800 à 1500m
200 à 500 ft
< 800m
< 200 ft
Symboles :   Orages  Brouillard  Fortes neiges  Fortes précipitations  Vent > 20 kt
SIGMETs :   Divers  Orages  Givrage  Turbulence  Onde Orograph.  Cendres Volcan.







- Altitude de l'aérodrome : 1197 ft
- Code IATA : SPM


ETAD - Spangdahlem Ab

DERNIER METAR :
  • 271258Z AUTO 21009KT 9999 CLR 29/10 A3007 RMK AO2 SLP157 T02870095 $

METARs EXPIRÉS :
  • 271158Z AUTO 17009KT 9999 CLR 28/09 A3008 RMK AO2 SLP162 T02760091 10277 20179 57009 $
  • 271058Z AUTO 12007KT 9999 CLR 27/09 A3009 RMK AO2 SLP164 T02670094 $

TAF TAF ETAD
Valide du 27 à 11h jusqu'au 28 à 17h UTC


271101Z 2711/2817 11009KT 9999 SKC QNH3003INS
BECMG 2718/2719 VRB06KT 9999 FEW030 QNH3004INS
BECMG 2806/2807 13009KT 9999 SCT020 BKN100 QNH3006INS
BECMG 2812/2813 13009KT 9000 -SHRA BKN040 QNH3002INS TX27/2715Z TN12/2804Z
Pas de NOTAMs connus pour ce terrain.



MET'MAP, la Météo Aéronautique d'un coup d'oeil ! - Copyright ORBIFLY Décembre 2007 - Disclaimer

ORBIFLY MET'MAP TEAM :

Programmation & Développement : Alexandra Zaïnal
Conception & Développement : Baudouin d'Aumeries
Co-Programmation & Développement : Marc-Olivier Méhu
Soutien technique & logistique : Manuel Goepfert

Contact : metmap@orbifly.com




SOURCES & CREDITS :

   NOAA